Terminal Aerodrome Forecast
Issued by NWS Northern Indiana

Home | Current Version | Previous Version | Graphics & Text | Print | Product List | Glossary On
Versions: 1 2 3 4 5 6 7 8 9 10 11 12 13 14 15 16 17 18 19 20
000
FTUS43 KIWX 170500
TAFFWA
TAF
KFWA 170521Z 1706/1806 22004KT 6SM BR OVC040
      TEMPO 1709/1713 3SM BR BKN020
     FM171300 10005KT P6SM BKN020
     FM171900 10005KT P6SM BKN035=

USA.gov is the U.S. government's official web portal to all federal, state and local government web resources and services.